Time;durP1;ratioP1;P1;durP2;ratioP2;P2;SDS_P1;SDS_P2;PMS_P1;PMS_P2;Temp;Humidity;BMP_temperature;BMP_pressure;BME280_temperature;BME280_humidity;BME280_pressure;Samples;Min_cycle;Max_cycle;Signal;HPM_P1;HPM_P2
2022/02/01 00:01:48;;;;;;;3.93;1.43;;;0.10;99.90;;;;;;2089919;28;20306;-70
2022/02/01 00:02:54;;;;;;;5.28;1.52;;;0.10;99.90;;;;;;2097283;28;20643;-68
2022/02/01 00:04:00;;;;;;;4.45;1.77;;;0.10;99.90;;;;;;2089569;28;20177;-70
2022/02/01 00:06:36;;;;;;;9.30;1.63;;;0.10;99.90;;;;;;2063722;28;20914;-68
2022/02/01 00:07:47;;;;;;;3.90;1.50;;;0.10;99.90;;;;;;2090231;28;20157;-67
2022/02/01 00:08:59;;;;;;;2.13;1.70;;;0.10;99.90;;;;;;2090230;28;20183;-67
2022/02/01 00:11:28;;;;;;;4.60;1.50;;;0.20;99.90;;;;;;2089663;28;20621;-67
2022/02/01 00:19:23;;;;;;;5.70;1.98;;;0.20;99.90;;;;;;2089937;28;20199;-67
2022/02/01 00:33:06;;;;;;;2.75;1.45;;;0.20;99.90;;;;;;2089326;28;20184;-67
2022/02/01 00:34:27;;;;;;;5.55;2.38;;;0.20;99.90;;;;;;2089747;28;20951;-67
2022/02/01 00:35:41;;;;;;;4.45;1.85;;;0.10;99.90;;;;;;2089918;28;20207;-67
2022/02/01 00:36:50;;;;;;;2.60;1.60;;;0.10;99.90;;;;;;2089862;28;20602;-67
2022/02/01 00:38:05;;;;;;;2.47;1.70;;;0.20;99.90;;;;;;2089138;28;20216;-68
2022/02/01 00:39:10;;;;;;;7.03;2.17;;;0.20;99.90;;;;;;2089312;28;20615;-67
2022/02/01 00:40:12;;;;;;;6.38;2.20;;;0.20;99.90;;;;;;2089916;28;20605;-67
2022/02/01 00:41:13;;;;;;;6.60;1.95;;;0.20;99.90;;;;;;2089788;28;20280;-67
2022/02/01 00:42:15;;;;;;;5.75;1.77;;;0.20;99.90;;;;;;2089873;28;20181;-68
2022/02/01 00:43:16;;;;;;;6.65;1.70;;;0.10;99.90;;;;;;2089162;28;20182;-67
2022/02/01 00:44:17;;;;;;;3.40;1.37;;;0.10;99.90;;;;;;2089202;28;20689;-68
2022/02/01 00:45:18;;;;;;;1.57;1.20;;;0.20;99.90;;;;;;2089218;28;20653;-67
2022/02/01 00:46:18;;;;;;;3.83;1.83;;;0.20;99.90;;;;;;2081079;28;20234;-67
2022/02/01 00:47:19;;;;;;;3.63;1.57;;;0.20;99.90;;;;;;2089167;28;20427;-67
2022/02/01 00:48:20;;;;;;;3.27;1.60;;;0.20;99.90;;;;;;2089710;28;20172;-68
2022/02/01 00:49:20;;;;;;;2.73;1.23;;;0.20;99.90;;;;;;2089792;28;20584;-67
2022/02/01 00:50:21;;;;;;;3.50;2.40;;;0.20;99.90;;;;;;2089810;28;20164;-67
2022/02/01 00:51:22;;;;;;;2.90;1.17;;;0.20;99.90;;;;;;2089729;28;20195;-67
2022/02/01 00:52:25;;;;;;;6.17;1.40;;;0.20;99.90;;;;;;2089766;28;20183;-67
2022/02/01 00:53:29;;;;;;;3.67;1.33;;;0.20;99.90;;;;;;2089003;28;20180;-68
2022/02/01 00:54:30;;;;;;;2.35;1.60;;;0.20;99.90;;;;;;2081140;28;20216;-67
2022/02/01 00:55:31;;;;;;;2.77;1.30;;;0.20;99.90;;;;;;2089171;28;20208;-67
2022/02/01 00:56:31;;;;;;;4.80;1.60;;;0.10;99.90;;;;;;2089688;28;20188;-67
2022/02/01 00:57:32;;;;;;;4.27;2.13;;;0.10;99.90;;;;;;2089769;28;20199;-67
2022/02/01 00:58:33;;;;;;;6.50;1.70;;;0.10;99.90;;;;;;2089686;28;20184;-67
2022/02/01 00:59:33;;;;;;;2.77;1.60;;;0.10;99.90;;;;;;2089601;28;20195;-67
2022/02/01 01:00:34;;;;;;;5.13;1.53;;;0.10;99.90;;;;;;2089666;28;20180;-68
2022/02/01 01:01:35;;;;;;;4.37;1.80;;;0.20;99.90;;;;;;2089582;28;20767;-67
2022/02/01 01:02:36;;;;;;;4.17;1.87;;;0.20;99.90;;;;;;2089640;28;20668;-68
2022/02/01 01:03:37;;;;;;;5.68;1.70;;;0.30;99.90;;;;;;2089684;28;20539;-68
2022/02/01 01:04:38;;;;;;;3.17;1.60;;;0.30;99.90;;;;;;2088793;28;20183;-68
2022/02/01 01:05:39;;;;;;;3.40;1.90;;;0.30;99.90;;;;;;2080804;28;20547;-68
2022/02/01 01:06:39;;;;;;;4.73;1.90;;;0.30;99.90;;;;;;2072328;28;20182;-68
2022/02/01 01:07:40;;;;;;;3.47;1.40;;;0.30;99.90;;;;;;2080713;28;20727;-68
2022/02/01 01:08:42;;;;;;;7.57;2.17;;;0.30;99.90;;;;;;2099644;28;20320;-67
2022/02/01 01:09:44;;;;;;;3.15;1.83;;;0.30;99.90;;;;;;2105203;28;20208;-68
2022/02/01 01:10:45;;;;;;;6.63;1.63;;;0.20;99.90;;;;;;2097406;28;20612;-67
2022/02/01 01:11:46;;;;;;;5.77;1.53;;;0.20;99.90;;;;;;2096593;28;20199;-67
2022/02/01 01:12:58;;;;;;;2.57;1.57;;;0.20;99.90;;;;;;2097187;28;20259;-67
2022/02/01 01:17:06;;;;;;;3.72;1.85;;;0.20;99.90;;;;;;2088162;28;20223;-67
2022/02/01 01:44:26;;;;;;;3.40;1.40;;;0.20;99.90;;;;;;2097432;28;20727;-67
2022/02/01 01:45:37;;;;;;;3.53;1.40;;;0.10;99.90;;;;;;2097728;28;20168;-67
2022/02/01 01:54:15;;;;;;;5.43;1.80;;;0.30;99.90;;;;;;2097562;28;20192;-67
2022/02/01 01:55:17;;;;;;;5.95;1.75;;;0.20;99.90;;;;;;2096763;28;20536;-68
2022/02/01 01:56:18;;;;;;;6.18;1.90;;;0.20;99.90;;;;;;2088694;28;20189;-67
2022/02/01 01:57:20;;;;;;;6.10;1.70;;;0.10;99.90;;;;;;2088670;28;20594;-67
2022/02/01 01:58:22;;;;;;;9.55;1.60;;;0.20;99.90;;;;;;2088744;28;20735;-67
2022/02/01 01:59:25;;;;;;;8.80;2.08;;;0.20;99.90;;;;;;2088621;28;20198;-67
2022/02/01 02:01:44;;;;;;;6.00;2.28;;;0.10;99.90;;;;;;2097420;28;20217;-67
2022/02/01 02:02:45;;;;;;;6.67;1.97;;;0.10;99.90;;;;;;2097403;28;20187;-67
2022/02/01 02:03:48;;;;;;;14.03;2.60;;;0.10;99.90;;;;;;2097466;28;20172;-67
2022/02/01 02:04:49;;;;;;;3.75;1.90;;;0.10;99.90;;;;;;2096469;28;20640;-67
2022/02/01 02:05:50;;;;;;;4.17;1.60;;;0.10;99.90;;;;;;2096882;28;20185;-67
2022/02/01 02:06:52;;;;;;;6.37;1.90;;;0.20;99.90;;;;;;2096765;28;20179;-67
2022/02/01 02:07:53;;;;;;;5.93;1.58;;;0.20;99.90;;;;;;2096738;28;20183;-67
2022/02/01 02:08:55;;;;;;;4.00;1.50;;;0.20;99.90;;;;;;2097274;28;20172;-67
2022/02/01 02:09:56;;;;;;;8.57;1.90;;;0.10;99.90;;;;;;2097332;28;20176;-67
2022/02/01 02:11:02;;;;;;;7.97;2.10;;;0.10;99.90;;;;;;2097296;28;20239;-67
2022/02/01 02:12:13;;;;;;;6.30;1.80;;;0.20;99.90;;;;;;2097403;28;20164;-68
2022/02/01 02:14:25;;;;;;;5.32;2.33;;;0.10;99.90;;;;;;2097312;28;20182;-68
2022/02/01 02:15:45;;;;;;;6.60;2.38;;;0.00;99.90;;;;;;2097281;28;20171;-67
2022/02/01 02:17:00;;;;;;;7.13;2.50;;;0.00;99.90;;;;;;2096756;28;20244;-67
2022/02/01 02:18:01;;;;;;;6.25;2.28;;;0.10;99.90;;;;;;2092347;28;20588;-67
2022/02/01 02:19:05;;;;;;;7.07;2.20;;;0.10;99.90;;;;;;2096602;28;20192;-68
2022/02/01 02:20:06;;;;;;;6.25;2.50;;;0.10;99.90;;;;;;2096686;28;20187;-67
2022/02/01 02:21:07;;;;;;;4.82;2.03;;;0.00;99.90;;;;;;2096582;28;20747;-67
2022/02/01 02:22:08;;;;;;;2.90;2.40;;;0.00;99.90;;;;;;2097450;28;20184;-67
2022/02/01 02:23:10;;;;;;;8.48;2.47;;;0.00;99.90;;;;;;2096561;28;20204;-67
2022/02/01 02:24:10;;;;;;;9.18;2.22;;;0.00;99.90;;;;;;2097267;28;20186;-67
2022/02/01 02:25:11;;;;;;;7.13;2.20;;;0.00;99.90;;;;;;2097187;28;20175;-67
2022/02/01 02:26:14;;;;;;;8.90;2.93;;;0.00;99.90;;;;;;2097190;28;20176;-67
2022/02/01 02:27:15;;;;;;;9.35;2.10;;;0.10;99.90;;;;;;2096653;28;20710;-67
2022/02/01 02:28:18;;;;;;;12.35;2.55;;;0.10;99.90;;;;;;2096604;28;20200;-67
2022/02/01 02:29:19;;;;;;;8.43;2.33;;;0.10;99.90;;;;;;2097283;28;20183;-67
2022/02/01 02:30:20;;;;;;;12.17;2.20;;;0.10;99.90;;;;;;2096677;28;20171;-67
2022/02/01 02:31:22;;;;;;;7.77;2.63;;;0.10;99.90;;;;;;2096555;28;20192;-67
2022/02/01 02:32:25;;;;;;;5.35;2.58;;;0.20;99.90;;;;;;2097333;28;20324;-67
2022/02/01 02:33:26;;;;;;;6.70;1.75;;;0.20;99.90;;;;;;2097497;28;20184;-67
2022/02/01 02:34:27;;;;;;;10.77;2.28;;;0.20;99.90;;;;;;2097326;28;20179;-67
2022/02/01 02:35:32;;;;;;;10.63;2.80;;;0.20;99.90;;;;;;2096706;28;20184;-67
2022/02/01 02:36:36;;;;;;;8.18;2.63;;;0.20;99.90;;;;;;2096904;28;20222;-67
2022/02/01 02:37:37;;;;;;;15.85;3.33;;;0.20;99.90;;;;;;2096881;28;20819;-67
2022/02/01 02:40:09;;;;;;;8.73;2.20;;;0.20;99.90;;;;;;2096751;28;20366;-68
2022/02/01 02:45:03;;;;;;;12.35;2.53;;;0.10;99.90;;;;;;2097194;28;20725;-68
2022/02/01 02:45:09;;;;;;;6.60;2.10;;;0.10;99.90;;;;;;2096265;28;20179;-68
2022/02/01 02:46:10;;;;;;;10.38;3.03;;;0.10;99.90;;;;;;2096758;28;20191;-68
2022/02/01 02:47:10;;;;;;;5.70;2.10;;;0.10;99.90;;;;;;2096531;28;20790;-68
2022/02/01 02:48:14;;;;;;;3.43;1.70;;;0.10;99.90;;;;;;2088317;28;20180;-68
2022/02/01 02:49:21;;;;;;;5.38;2.20;;;0.10;99.90;;;;;;2088531;28;20177;-68
2022/02/01 02:50:23;;;;;;;11.82;2.75;;;0.10;99.90;;;;;;2089286;28;20172;-68
2022/02/01 02:51:26;;;;;;;6.18;2.05;;;0.20;99.90;;;;;;2096628;28;20706;-69
2022/02/01 02:52:27;;;;;;;6.90;2.00;;;0.30;99.90;;;;;;2097228;28;20183;-68
2022/02/01 02:53:27;;;;;;;5.27;2.30;;;0.30;99.90;;;;;;2097156;28;20184;-68
2022/02/01 02:54:29;;;;;;;5.47;1.83;;;0.30;99.90;;;;;;2096327;28;20192;-68
2022/02/01 02:55:31;;;;;;;13.15;2.00;;;0.30;99.90;;;;;;2088436;28;20188;-68
2022/02/01 02:56:33;;;;;;;10.88;2.88;;;0.30;99.90;;;;;;2096625;28;20721;-68
2022/02/01 02:57:34;;;;;;;5.13;1.77;;;0.20;99.90;;;;;;2096598;28;20275;-68
2022/02/01 02:58:34;;;;;;;9.10;1.85;;;0.10;99.90;;;;;;2096513;28;20714;-68
2022/02/01 02:59:37;;;;;;;6.77;2.20;;;0.10;99.90;;;;;;2097084;28;20180;-68
2022/02/01 03:00:39;;;;;;;5.00;1.92;;;0.00;99.90;;;;;;2096642;28;20179;-68
2022/02/01 03:01:42;;;;;;;4.65;2.10;;;0.10;99.90;;;;;;2088373;28;20212;-68
2022/02/01 03:02:43;;;;;;;8.27;2.47;;;0.00;99.90;;;;;;2088822;28;20268;-68
2022/02/01 03:03:43;;;;;;;12.83;2.40;;;-0.10;99.90;;;;;;2096167;28;20267;-68
2022/02/01 03:04:46;;;;;;;5.70;2.10;;;-0.10;99.90;;;;;;2097026;28;20184;-68
2022/02/01 03:05:46;;;;;;;11.45;3.13;;;0.00;99.90;;;;;;2097096;28;20214;-68
2022/02/01 03:06:48;;;;;;;7.10;2.07;;;0.10;99.90;;;;;;2097383;28;20848;-68
2022/02/01 03:07:49;;;;;;;4.68;2.30;;;0.00;99.90;;;;;;2096519;28;20596;-68
2022/02/01 03:08:49;;;;;;;5.80;2.20;;;0.10;99.90;;;;;;2096535;28;20179;-68
2022/02/01 03:09:50;;;;;;;3.90;2.17;;;0.10;99.90;;;;;;2096451;28;20639;-68
2022/02/01 03:10:51;;;;;;;5.47;3.00;;;0.00;99.90;;;;;;2096511;28;20187;-68
2022/02/01 03:11:56;;;;;;;9.23;2.20;;;0.00;99.90;;;;;;2097167;28;20755;-68
2022/02/01 03:14:00;;;;;;;6.67;1.77;;;0.20;99.90;;;;;;2096557;28;20180;-68
2022/02/01 03:15:22;;;;;;;5.97;1.85;;;0.10;99.90;;;;;;2096931;28;20184;-68
2022/02/01 03:19:47;;;;;;;4.93;2.17;;;-0.10;99.90;;;;;;2097390;28;20184;-67
2022/02/01 03:20:05;;;;;;;5.45;2.22;;;-0.10;99.90;;;;;;2097040;28;20187;-68
2022/02/01 03:21:06;;;;;;;3.22;2.20;;;-0.10;99.90;;;;;;2097069;28;20568;-68
2022/02/01 03:22:06;;;;;;;5.00;1.83;;;0.00;99.90;;;;;;2097262;28;20184;-68
2022/02/01 03:23:07;;;;;;;3.40;1.87;;;-0.10;99.90;;;;;;2088043;28;20172;-68
2022/02/01 03:24:08;;;;;;;6.00;1.70;;;-0.10;99.90;;;;;;2088125;28;20172;-68
2022/02/01 03:25:11;;;;;;;8.40;1.83;;;-0.20;99.90;;;;;;2096417;28;20179;-68
2022/02/01 03:26:11;;;;;;;11.93;2.42;;;-0.10;99.90;;;;;;2097018;28;20198;-68
2022/02/01 03:27:13;;;;;;;10.93;1.70;;;-0.10;99.90;;;;;;2097263;28;20287;-68
2022/02/01 03:28:13;;;;;;;10.23;2.30;;;0.00;99.90;;;;;;2088055;28;20668;-68
2022/02/01 03:29:14;;;;;;;5.70;1.93;;;0.00;99.90;;;;;;2088016;28;20192;-68
2022/02/01 03:30:15;;;;;;;7.37;1.80;;;0.00;99.90;;;;;;2097070;28;20164;-68
2022/02/01 03:31:17;;;;;;;10.43;3.07;;;0.00;99.90;;;;;;2097041;28;20238;-67
2022/02/01 03:32:22;;;;;;;8.93;2.33;;;0.00;99.90;;;;;;2096379;28;20179;-68
2022/02/01 03:33:23;;;;;;;10.23;2.65;;;0.00;99.90;;;;;;2088768;28;20207;-68
2022/02/01 03:34:24;;;;;;;13.80;2.80;;;0.10;99.90;;;;;;2096688;28;20204;-68
2022/02/01 03:35:24;;;;;;;8.27;2.43;;;0.10;99.90;;;;;;2098150;28;20179;-68
2022/02/01 03:36:25;;;;;;;11.70;3.13;;;0.00;99.90;;;;;;2097956;28;20479;-67
2022/02/01 03:37:26;;;;;;;12.47;2.53;;;-0.10;99.90;;;;;;2098674;28;20186;-68
2022/02/01 03:38:26;;;;;;;12.63;3.27;;;-0.20;99.90;;;;;;2098766;28;20192;-68
2022/02/01 03:39:27;;;;;;;9.80;3.50;;;-0.20;99.90;;;;;;2098562;28;20171;-68
2022/02/01 03:40:28;;;;;;;11.57;3.20;;;-0.20;99.90;;;;;;2098718;28;20236;-67
2022/02/01 03:41:29;;;;;;;8.07;2.78;;;-0.20;99.90;;;;;;2098510;28;20359;-68
2022/02/01 03:42:30;;;;;;;12.13;2.77;;;-0.10;99.90;;;;;;2098510;28;20259;-68
2022/02/01 03:43:31;;;;;;;15.07;4.10;;;-0.10;99.90;;;;;;2097977;28;20191;-68
2022/02/01 03:44:33;;;;;;;11.20;2.33;;;-0.20;99.90;;;;;;2097827;28;20265;-68
2022/02/01 03:45:34;;;;;;;9.13;2.45;;;-0.10;99.90;;;;;;2098619;28;20568;-68
2022/02/01 03:46:34;;;;;;;6.70;2.20;;;-0.10;99.90;;;;;;2098508;28;20192;-67
2022/02/01 03:47:36;;;;;;;9.83;2.33;;;-0.10;99.90;;;;;;2098423;28;20633;-67
2022/02/01 03:48:38;;;;;;;17.10;2.67;;;-0.10;99.90;;;;;;2097720;28;20218;-68
2022/02/01 03:49:41;;;;;;;10.27;2.35;;;-0.10;99.90;;;;;;2097796;28;20591;-67
2022/02/01 03:50:43;;;;;;;27.08;3.55;;;-0.10;99.90;;;;;;2097836;28;20187;-68
2022/02/01 03:51:44;;;;;;;8.70;2.38;;;-0.30;99.90;;;;;;2096942;28;20204;-68
2022/02/01 03:52:45;;;;;;;8.23;2.17;;;-0.30;99.90;;;;;;2102225;28;20183;-67
2022/02/01 03:53:45;;;;;;;8.87;2.13;;;-0.30;99.90;;;;;;2097767;28;20176;-67
2022/02/01 03:54:46;;;;;;;11.43;3.10;;;-0.30;99.90;;;;;;2097617;28;20275;-68
2022/02/01 03:55:47;;;;;;;9.77;2.57;;;-0.30;99.90;;;;;;2098458;28;20187;-67
2022/02/01 03:56:47;;;;;;;9.27;2.53;;;-0.30;99.90;;;;;;2098509;28;20648;-67
2022/02/01 03:57:48;;;;;;;8.13;2.20;;;-0.30;99.90;;;;;;2097832;28;20179;-67
2022/02/01 03:58:49;;;;;;;7.00;2.30;;;-0.30;99.90;;;;;;2097658;28;20176;-67
2022/02/01 03:59:49;;;;;;;7.50;2.23;;;-0.20;99.90;;;;;;2097910;28;20729;-68
2022/02/01 04:00:50;;;;;;;5.63;2.60;;;-0.20;99.90;;;;;;2097807;28;20565;-67
2022/02/01 04:01:55;;;;;;;6.47;2.10;;;-0.30;99.90;;;;;;2098371;28;20703;-67
2022/02/01 04:02:58;;;;;;;8.77;2.65;;;-0.30;99.90;;;;;;2097721;28;20240;-67
2022/02/01 04:03:58;;;;;;;10.32;1.80;;;-0.30;99.90;;;;;;2097945;28;20245;-67
2022/02/01 04:04:59;;;;;;;10.50;2.07;;;-0.30;99.90;;;;;;2098164;28;20813;-68
2022/02/01 04:06:00;;;;;;;7.20;2.03;;;-0.30;99.90;;;;;;2098442;28;20195;-67
2022/02/01 04:07:01;;;;;;;13.53;1.90;;;-0.30;99.90;;;;;;2097706;28;20176;-67
2022/02/01 04:08:02;;;;;;;7.25;1.60;;;-0.30;99.90;;;;;;2097735;28;20195;-67
2022/02/01 04:09:03;;;;;;;14.80;2.25;;;-0.30;99.90;;;;;;2097595;28;20236;-67
2022/02/01 04:10:04;;;;;;;7.73;3.03;;;-0.30;99.90;;;;;;2097885;28;20188;-68
2022/02/01 04:11:05;;;;;;;11.88;2.75;;;-0.20;99.90;;;;;;2098240;28;20176;-68
2022/02/01 04:12:06;;;;;;;8.07;1.97;;;-0.30;99.90;;;;;;2098452;28;20219;-67
2022/02/01 04:13:07;;;;;;;6.55;1.73;;;-0.30;99.90;;;;;;2098427;28;20175;-67
2022/02/01 04:14:08;;;;;;;9.10;2.03;;;-0.30;99.90;;;;;;2098398;28;20176;-67
2022/02/01 04:15:09;;;;;;;7.17;2.10;;;-0.30;99.90;;;;;;2098219;28;20623;-68
2022/02/01 04:16:10;;;;;;;10.02;2.72;;;-0.20;99.90;;;;;;2098498;28;20767;-67
2022/02/01 04:17:11;;;;;;;7.97;2.70;;;-0.20;99.90;;;;;;2097746;28;20191;-67
2022/02/01 04:18:12;;;;;;;7.03;1.98;;;-0.20;99.90;;;;;;2097890;28;20188;-67
2022/02/01 04:19:13;;;;;;;4.07;1.70;;;-0.20;99.90;;;;;;2098212;28;20188;-68
2022/02/01 04:20:15;;;;;;;12.63;2.40;;;-0.20;99.90;;;;;;2098429;28;20212;-67
2022/02/01 04:21:16;;;;;;;11.40;2.88;;;-0.20;99.90;;;;;;2097457;28;20207;-67
2022/02/01 04:22:17;;;;;;;16.80;2.43;;;-0.10;99.90;;;;;;2097711;28;20207;-67
2022/02/01 04:23:18;;;;;;;9.68;2.53;;;-0.20;99.90;;;;;;2098253;28;20548;-67
2022/02/01 04:24:18;;;;;;;9.40;3.03;;;-0.30;99.90;;;;;;2098296;28;20268;-67
2022/02/01 04:25:19;;;;;;;6.60;2.60;;;-0.30;99.90;;;;;;2097570;28;20590;-67
2022/02/01 04:26:20;;;;;;;10.70;2.33;;;-0.30;99.90;;;;;;2097804;28;20265;-67
2022/02/01 04:27:32;;;;;;;15.43;2.53;;;-0.20;99.90;;;;;;2097720;28;20206;-67
2022/02/01 04:28:33;;;;;;;5.68;2.28;;;-0.20;99.90;;;;;;2090982;28;20629;-67
2022/02/01 04:29:36;;;;;;;12.80;3.93;;;-0.10;99.90;;;;;;2097737;28;20176;-68
2022/02/01 04:30:37;;;;;;;6.15;2.47;;;-0.10;99.90;;;;;;2098327;28;20258;-67
2022/02/01 04:31:37;;;;;;;6.03;1.97;;;-0.20;99.90;;;;;;2098279;28;20207;-67
2022/02/01 04:32:50;;;;;;;8.63;2.33;;;-0.20;99.90;;;;;;2098312;28;20194;-67
2022/02/01 04:33:51;;;;;;;8.52;2.40;;;-0.20;99.90;;;;;;2097686;28;20267;-67
2022/02/01 04:34:59;;;;;;;9.83;1.80;;;-0.20;99.90;;;;;;2097571;28;20184;-67
2022/02/01 04:35:59;;;;;;;18.92;2.60;;;-0.20;99.90;;;;;;2098189;28;20640;-67
2022/02/01 04:37:00;;;;;;;7.77;2.10;;;-0.10;99.90;;;;;;2098112;28;20275;-67
2022/02/01 04:38:01;;;;;;;8.63;2.33;;;0.00;99.90;;;;;;2097391;28;20183;-67
2022/02/01 04:39:04;;;;;;;6.93;1.90;;;-0.10;99.90;;;;;;2097401;28;20259;-68
2022/02/01 04:40:08;;;;;;;11.07;2.05;;;-0.20;99.90;;;;;;2098013;28;20183;-67
2022/02/01 04:41:08;;;;;;;11.52;2.05;;;-0.20;99.90;;;;;;2097931;28;20175;-67
2022/02/01 04:42:09;;;;;;;5.87;1.67;;;-0.30;99.90;;;;;;2098063;28;20316;-68
2022/02/01 04:43:11;;;;;;;5.90;2.23;;;-0.40;99.90;;;;;;2098071;28;20182;-67
2022/02/01 04:44:12;;;;;;;6.45;1.80;;;-0.40;99.90;;;;;;2098101;28;20720;-67
2022/02/01 04:45:16;;;;;;;7.60;2.13;;;-0.40;99.90;;;;;;2097967;28;20271;-67
2022/02/01 04:46:17;;;;;;;4.68;1.70;;;-0.30;99.90;;;;;;2096566;28;20409;-67
2022/02/01 04:47:18;;;;;;;11.57;2.63;;;-0.30;99.90;;;;;;2097458;28;20633;-67
2022/02/01 04:48:18;;;;;;;5.37;2.00;;;-0.20;99.90;;;;;;2097415;28;20182;-67
2022/02/01 04:49:20;;;;;;;11.27;2.20;;;-0.10;99.90;;;;;;2097519;28;20262;-67
2022/02/01 04:50:27;;;;;;;9.02;2.22;;;-0.20;99.90;;;;;;2098100;28;20179;-67
2022/02/01 04:51:29;;;;;;;10.55;2.50;;;-0.20;99.90;;;;;;2098155;28;20208;-67
2022/02/01 04:52:31;;;;;;;5.25;1.77;;;-0.30;99.90;;;;;;2097372;28;20184;-67
2022/02/01 04:53:31;;;;;;;8.65;1.73;;;-0.30;99.90;;;;;;2089492;28;20200;-67
2022/02/01 04:54:32;;;;;;;8.10;2.00;;;-0.30;99.90;;;;;;2097253;28;20643;-66
2022/02/01 04:55:54;;;;;;;7.67;1.90;;;-0.30;99.90;;;;;;2097588;28;20609;-67
2022/02/01 04:56:54;;;;;;;6.85;2.25;;;-0.20;99.90;;;;;;2097713;28;20172;-67
2022/02/01 04:57:55;;;;;;;5.90;1.63;;;-0.20;99.90;;;;;;2097454;28;20184;-67
2022/02/01 04:58:56;;;;;;;6.23;1.97;;;-0.30;99.90;;;;;;2097378;28;20229;-66
2022/02/01 04:59:56;;;;;;;11.93;1.70;;;-0.30;99.90;;;;;;2097629;28;20188;-67
2022/02/01 05:00:57;;;;;;;13.43;2.47;;;-0.40;99.90;;;;;;2097541;28;20217;-67
2022/02/01 05:01:58;;;;;;;7.97;1.73;;;-0.30;99.90;;;;;;2097568;28;20220;-67
2022/02/01 05:03:00;;;;;;;8.70;2.00;;;-0.30;99.90;;;;;;2097481;28;21024;-67
2022/02/01 05:04:01;;;;;;;13.23;3.17;;;-0.20;99.90;;;;;;2097913;28;20180;-67
2022/02/01 05:05:02;;;;;;;6.27;2.33;;;-0.20;99.90;;;;;;2097801;28;20179;-67
2022/02/01 05:06:04;;;;;;;8.20;2.87;;;-0.20;99.90;;;;;;2097359;28;20798;-67
2022/02/01 05:07:05;;;;;;;9.73;2.38;;;-0.20;99.90;;;;;;2097358;28;20565;-67
2022/02/01 05:08:09;;;;;;;3.60;1.70;;;-0.20;99.90;;;;;;2098065;28;20191;-67
2022/02/01 05:09:10;;;;;;;8.65;2.92;;;-0.10;99.90;;;;;;2098080;28;20455;-68
2022/02/01 05:10:11;;;;;;;8.65;2.08;;;-0.10;99.90;;;;;;2098191;28;20195;-67
2022/02/01 05:11:12;;;;;;;7.20;2.50;;;-0.20;99.90;;;;;;2098015;28;20221;-67
2022/02/01 05:12:13;;;;;;;8.23;2.30;;;-0.10;99.90;;;;;;2097375;28;20758;-67
2022/02/01 05:14:25;;;;;;;11.80;1.80;;;-0.20;99.90;;;;;;2097435;28;20164;-67
2022/02/01 05:15:27;;;;;;;23.60;16.45;;;-0.20;99.90;;;;;;2097431;28;20658;-67
2022/02/01 05:16:43;;;;;;;4.93;1.80;;;-0.10;99.90;;;;;;2098196;28;20188;-68
2022/02/01 05:17:52;;;;;;;9.18;1.92;;;-0.20;99.90;;;;;;2097288;28;20179;-67
2022/02/01 05:19:03;;;;;;;10.73;1.95;;;-0.20;99.90;;;;;;2090360;28;20168;-67
2022/02/01 05:20:28;;;;;;;4.35;1.70;;;-0.20;99.90;;;;;;2097489;28;20195;-67
2022/02/01 05:21:31;;;;;;;6.88;2.10;;;-0.20;99.90;;;;;;2097390;28;20215;-67
2022/02/01 05:22:32;;;;;;;9.23;2.92;;;-0.30;99.90;;;;;;2098026;28;20214;-67
2022/02/01 05:23:33;;;;;;;7.43;2.80;;;-0.30;99.90;;;;;;2105632;28;20182;-67
2022/02/01 05:24:38;;;;;;;5.50;1.80;;;-0.30;99.90;;;;;;2105550;28;20730;-67
2022/02/01 05:25:40;;;;;;;9.23;2.35;;;-0.30;99.90;;;;;;2105756;28;20190;-67
2022/02/01 05:26:42;;;;;;;7.18;2.00;;;-0.30;99.90;;;;;;2105253;28;20223;-67
2022/02/01 05:27:43;;;;;;;3.63;1.60;;;-0.20;99.90;;;;;;2097945;28;20179;-68
2022/02/01 05:28:44;;;;;;;6.33;2.50;;;-0.20;99.90;;;;;;2097319;28;20235;-67
2022/02/01 05:29:44;;;;;;;15.23;2.67;;;-0.30;99.90;;;;;;2096968;28;20201;-67
2022/02/01 05:30:45;;;;;;;12.00;2.63;;;-0.40;99.90;;;;;;2097865;28;20612;-67
2022/02/01 05:31:51;;;;;;;9.70;3.47;;;-0.40;99.90;;;;;;2097753;28;20241;-67
2022/02/01 05:32:52;;;;;;;7.05;3.47;;;-0.30;99.90;;;;;;2097279;28;20163;-67
2022/02/01 05:33:53;;;;;;;5.97;2.40;;;-0.30;99.90;;;;;;2097417;28;20188;-67
2022/02/01 05:34:56;;;;;;;4.37;1.77;;;-0.30;99.90;;;;;;2105163;28;20181;-67
2022/02/01 05:35:57;;;;;;;11.15;2.63;;;-0.30;99.90;;;;;;2097192;28;20211;-67
2022/02/01 05:36:58;;;;;;;9.55;2.30;;;-0.20;99.90;;;;;;2097387;28;20190;-67
2022/02/01 05:37:59;;;;;;;8.43;1.80;;;-0.30;99.90;;;;;;2105474;28;20610;-67
2022/02/01 05:38:59;;;;;;;7.43;2.10;;;-0.30;99.90;;;;;;2097711;28;20236;-67
2022/02/01 05:40:00;;;;;;;10.40;1.77;;;-0.30;99.90;;;;;;2097753;28;20187;-67
2022/02/01 05:41:03;;;;;;;5.37;1.40;;;-0.20;99.90;;;;;;2097829;28;20188;-68
2022/02/01 05:42:04;;;;;;;4.65;1.75;;;-0.20;99.90;;;;;;2097104;28;20745;-67
2022/02/01 05:43:10;;;;;;;6.07;1.80;;;-0.30;99.90;;;;;;2097206;28;20222;-68
2022/02/01 05:44:12;;;;;;;7.55;1.80;;;-0.30;99.90;;;;;;2104862;28;20175;-67
2022/02/01 05:45:13;;;;;;;8.45;2.03;;;-0.30;99.90;;;;;;2097651;28;20205;-68
2022/02/01 05:46:16;;;;;;;3.58;1.30;;;-0.30;99.90;;;;;;2097744;28;20622;-68
2022/02/01 05:47:17;;;;;;;8.40;1.77;;;-0.30;99.90;;;;;;2105375;28;20179;-67
2022/02/01 05:48:19;;;;;;;9.53;2.13;;;-0.30;99.90;;;;;;2105475;28;20210;-67
2022/02/01 05:49:20;;;;;;;5.70;1.70;;;-0.40;99.90;;;;;;2097675;28;20175;-67
2022/02/01 05:50:21;;;;;;;7.77;2.10;;;-0.40;99.90;;;;;;2097671;28;20353;-67
2022/02/01 05:51:23;;;;;;;4.60;1.88;;;-0.40;99.90;;;;;;2105223;28;20211;-67
2022/02/01 05:52:24;;;;;;;5.60;1.60;;;-0.50;99.90;;;;;;2097137;28;20621;-67
2022/02/01 05:53:25;;;;;;;3.50;2.07;;;-0.50;99.90;;;;;;2097014;28;20194;-67
2022/02/01 05:54:27;;;;;;;6.67;2.47;;;-0.50;99.90;;;;;;2097479;28;20186;-67
2022/02/01 05:55:28;;;;;;;9.73;1.80;;;-0.40;99.90;;;;;;2097503;28;20195;-67
2022/02/01 05:56:29;;;;;;;6.47;2.05;;;-0.40;99.90;;;;;;2097469;28;20179;-67
2022/02/01 05:57:30;;;;;;;8.07;1.83;;;-0.40;99.90;;;;;;2097436;28;20687;-67
2022/02/01 05:58:31;;;;;;;5.67;1.73;;;-0.40;99.90;;;;;;2097630;28;20180;-67
2022/02/01 05:59:31;;;;;;;6.07;1.67;;;-0.40;99.90;;;;;;2097414;28;20215;-67
2022/02/01 06:00:32;;;;;;;11.67;1.97;;;-0.40;99.90;;;;;;2096925;28;20175;-67
2022/02/01 06:01:33;;;;;;;7.05;2.00;;;-0.30;99.90;;;;;;2096769;28;20262;-67
2022/02/01 06:02:34;;;;;;;5.63;1.70;;;-0.30;99.90;;;;;;2096781;28;20605;-67
2022/02/01 06:03:35;;;;;;;7.37;1.77;;;-0.20;99.90;;;;;;2096727;28;20210;-67
2022/02/01 06:04:35;;;;;;;4.63;1.80;;;-0.20;99.90;;;;;;2096568;28;20175;-67
2022/02/01 06:05:36;;;;;;;7.53;1.80;;;-0.20;99.90;;;;;;2096796;28;20243;-67
2022/02/01 06:06:37;;;;;;;6.40;2.03;;;-0.20;99.90;;;;;;2097490;28;20179;-67
2022/02/01 06:07:38;;;;;;;5.30;1.60;;;-0.20;99.90;;;;;;2104977;28;20601;-67
2022/02/01 06:08:38;;;;;;;9.57;1.90;;;-0.30;99.90;;;;;;2096645;28;20214;-67
2022/02/01 06:09:39;;;;;;;7.87;2.03;;;-0.30;99.90;;;;;;2096682;28;20176;-68
2022/02/01 06:10:40;;;;;;;8.20;1.67;;;-0.20;99.90;;;;;;2097395;28;20640;-67
2022/02/01 06:11:40;;;;;;;7.07;1.90;;;-0.30;99.90;;;;;;2097260;28;20719;-67
2022/02/01 06:12:44;;;;;;;6.73;1.63;;;-0.30;99.90;;;;;;2097370;28;20536;-67
2022/02/01 06:13:45;;;;;;;8.25;2.40;;;-0.30;99.90;;;;;;2097376;28;20207;-67
2022/02/01 06:14:45;;;;;;;4.90;1.70;;;-0.20;99.90;;;;;;2097247;28;20645;-67
2022/02/01 06:15:46;;;;;;;10.83;2.60;;;-0.10;99.90;;;;;;2097298;28;20722;-67
2022/02/01 06:16:47;;;;;;;7.87;1.93;;;-0.20;99.90;;;;;;2096772;28;20191;-67
2022/02/01 06:17:48;;;;;;;7.57;1.93;;;-0.20;99.90;;;;;;2096602;28;20180;-67
2022/02/01 06:18:48;;;;;;;8.47;2.00;;;-0.20;99.90;;;;;;2096733;28;20180;-67
2022/02/01 06:19:49;;;;;;;6.00;2.20;;;-0.20;99.90;;;;;;2096562;28;20238;-67
2022/02/01 06:20:50;;;;;;;8.60;1.80;;;-0.20;99.90;;;;;;2105042;28;20183;-67
2022/02/01 06:21:50;;;;;;;8.13;1.60;;;-0.20;99.90;;;;;;2096667;28;20668;-67
2022/02/01 06:22:51;;;;;;;6.03;1.83;;;-0.20;99.90;;;;;;2105104;28;20735;-67
2022/02/01 06:23:52;;;;;;;7.60;1.70;;;-0.20;99.90;;;;;;2104922;28;20182;-67
2022/02/01 06:24:52;;;;;;;8.57;2.07;;;-0.10;99.90;;;;;;2097228;28;20191;-68
2022/02/01 06:25:56;;;;;;;15.30;2.27;;;-0.10;99.90;;;;;;2096624;28;20548;-68
2022/02/01 06:26:56;;;;;;;8.25;1.83;;;-0.20;99.90;;;;;;2096702;28;20559;-68
2022/02/01 06:27:57;;;;;;;5.07;1.83;;;-0.20;99.90;;;;;;2096644;28;20192;-68
2022/02/01 06:28:57;;;;;;;6.60;1.83;;;-0.10;99.90;;;;;;2096517;28;20187;-68
2022/02/01 06:29:58;;;;;;;7.20;2.10;;;-0.10;99.90;;;;;;2097184;28;20229;-68
2022/02/01 06:30:59;;;;;;;10.18;2.22;;;0.00;99.90;;;;;;2096500;28;20190;-67
2022/02/01 06:32:00;;;;;;;11.43;2.17;;;0.00;99.90;;;;;;2096805;28;20623;-68
2022/02/01 06:33:01;;;;;;;9.27;2.10;;;0.00;99.90;;;;;;2096633;28;20728;-68
2022/02/01 06:34:02;;;;;;;12.98;3.88;;;-0.10;99.90;;;;;;2096471;28;20585;-67
2022/02/01 06:35:03;;;;;;;11.93;2.87;;;-0.10;99.90;;;;;;2096462;28;20192;-67
2022/02/01 06:36:04;;;;;;;9.10;2.45;;;-0.20;99.90;;;;;;2097297;28;20192;-68
2022/02/01 06:37:05;;;;;;;4.60;2.33;;;-0.30;99.90;;;;;;2096457;28;20187;-68